EW5206 Weather Reports


Display with metric or nautical units.
time (UTC)temp
F
wind
direction
speed
MPH
gust
MPH
rain 1hr
in
rain 24hr
in
rain mn
in
humidity
%
barometer
mb
20200406163014 63 25 0.0 16.0 0.01 0.01 0.01 71 1018.3
20200406161515 64 36 0.0 9.0 0.01 0.01 0.01 64 1018.7
20200406160005 67 33 0.0 11.0 0.01 0.01 0.01 60 1018.7
20200406154509 69 328 0.0 1.0 0.00 0.00 0.00 49 1018.4
20200406153005 69 46 0.0 9.0 0.00 0.00 0.00 51 1018.4
20200406151714 68 344 0.0 15.0 0.00 0.00 0.00 52 1018.6
20200406150129 68 46 1.0 9.0 0.00 0.00 0.00 51 1018.8
20200406144615 67 360 0.0 9.0 0.00 0.00 0.00 53 1018.9
20200406143134 65 55 0.0 1.0 0.00 0.00 0.00 57 1018.9
20200406141629 63 42 0.0 1.0 0.00 0.00 0.00 61 1018.8
20200406140138 61 330 0.0 0.0 0.00 0.00 0.00 66 1018.9
20200406134553 59 213 0.0 0.0 0.00 0.00 0.00 67 1019.0
20200406133035 58 225 0.0 0.0 0.00 0.00 0.00 71 1019.1
20200406131551 57 238 0.0 0.0 0.00 0.00 0.00 73 1019.1
20200406130120 57 31 0.0 0.0 0.00 0.00 0.00 71 1019.2
20200406124606 58 326 0.0 0.0 0.00 0.00 0.00 73 1019.1
20200406123029 56 326 0.0 0.0 0.00 0.00 0.00 69 1019.2
20200406121526 55 19 0.0 0.0 0.00 0.00 0.00 74 1018.9
20200406120057 53 342 0.0 0.0 0.00 0.00 0.00 74 1018.9
20200406114542 51 342 0.0 0.0 0.00 0.00 0.00 76 1018.7
20200406113038 50 342 0.0 0.0 0.00 0.00 0.00 77 1018.5
20200406111548 50 342 0.0 0.0 0.00 0.00 0.00 77 1018.3
20200406110025 51 342 0.0 0.0 0.00 0.00 0.00 76 1018.1
20200406104527 51 342 0.0 0.0 0.00 0.00 0.00 75 1017.8
20200406103014 52 342 0.0 0.0 0.00 0.00 0.00 74 1017.7
20200406101515 53 342 0.0 0.0 0.00 0.00 0.00 72 1017.6
20200406100015 53 342 0.0 0.0 0.00 0.00 0.00 72 1017.6
20200406094511 54 342 0.0 0.0 0.00 0.00 0.00 70 1017.5
20200406093044 54 337 0.0 0.0 0.00 0.00 0.00 69 1017.5
20200406091514 54 360 0.0 0.0 0.00 0.00 0.00 69 1017.6
20200406090019 53 5 0.0 0.0 0.00 0.00 0.00 71 1017.5
20200406084530 53 333 0.0 0.0 0.00 0.00 0.00 74 1017.5
20200406083006 54 333 0.0 0.0 0.00 0.00 0.00 73 1017.5
20200406081508 54 330 0.0 0.0 0.00 0.00 0.00 71 1017.4
20200406080011 54 5 0.0 1.0 0.00 0.00 0.00 72 1017.4
20200406074511 53 28 0.0 0.0 0.00 0.00 0.00 76 1017.3
20200406073006 52 27 0.0 0.0 0.00 0.00 0.00 79 1017.3
20200406071510 53 26 0.0 0.0 0.00 0.00 0.00 82 1017.3
20200406070112 53 26 0.0 0.0 0.00 0.00 0.00 81 1017.4
20200406064624 53 27 0.0 0.0 0.00 0.00 0.00 82 1017.6
20200406063144 53 26 0.0 0.0 0.00 0.00 0.00 81 1017.7
20200406061628 53 27 0.0 0.0 0.00 0.00 0.00 81 1017.6
20200406060137 53 26 0.0 0.0 0.00 0.00 0.00 81 1017.8
20200406054557 53 27 0.0 0.0 0.00 0.00 0.00 79 1017.7
20200406053212 54 27 0.0 0.0 0.00 0.00 0.00 79 1017.9
20200406051617 54 27 0.0 0.0 0.00 0.00 0.00 78 1017.8
20200406050055 54 27 0.0 0.0 0.00 0.00 0.00 78 1017.9
20200406044617 55 26 0.0 0.0 0.00 0.00 0.00 77 1018.0
20200406043113 55 27 0.0 0.0 0.00 0.00 0.00 77 1018.1
20200406041611 55 27 0.0 0.0 0.00 0.00 0.00 75 1018.2
20200406040155 56 27 0.0 0.0 0.00 0.00 0.00 74 1018.2
20200406034645 56 26 0.0 0.0 0.00 0.00 0.00 74 1018.2
20200406033051 57 27 0.0 0.0 0.00 0.00 0.00 73 1018.2
20200406031609 57 26 0.0 0.0 0.00 0.00 0.00 73 1018.0
20200406030153 57 360 0.0 0.0 0.00 0.00 0.00 74 1018.1
20200406024622 57 292 0.0 0.0 0.00 0.00 0.00 75 1018.1
20200406023104 57 292 0.0 0.0 0.00 0.00 0.00 75 1018.1
20200406021547 57 292 0.0 0.0 0.00 0.00 0.00 73 1018.1
20200406020117 58 292 0.0 0.0 0.00 0.00 0.00 72 1017.8
20200406014544 58 292 0.0 0.0 0.00 0.00 0.00 71 1017.7
20200406013042 59 292 0.0 0.0 0.00 0.00 0.00 69 1017.6
20200406011629 60 292 0.0 0.0 0.00 0.00 0.00 67 1017.3
20200406010124 60 292 0.0 0.0 0.00 0.00 0.00 66 1017.5
20200406004613 61 292 0.0 0.0 0.00 0.00 0.00 64 1017.5
20200406003036 62 292 0.0 0.0 0.00 0.00 0.00 62 1017.3
20200406001618 63 225 0.0 0.0 0.00 0.00 0.00 59 1017.3
20200406000103 64 181 0.0 0.0 0.00 0.00 0.00 50 1017.2
20200405234554 64 179 0.0 0.0 0.00 0.00 0.00 48 1017.0
20200405233112 65 179 0.0 0.0 0.00 0.00 0.00 47 1016.8
20200405231711 65 178 0.0 0.0 0.00 0.00 0.00 46 1016.8
20200405230042 66 178 0.0 0.0 0.00 0.00 0.00 45 1016.7
20200405224555 66 178 0.0 0.0 0.00 0.00 0.00 44 1016.7
20200405223055 66 165 0.0 0.0 0.00 0.00 0.00 44 1016.6
20200405221540 67 180 0.0 0.0 0.00 0.00 0.00 42 1016.5
20200405220110 68 186 0.0 1.0 0.00 0.00 0.00 41 1016.3
20200405214647 68 182 0.0 3.0 0.00 0.00 0.00 41 1016.3
20200405213103 69 193 0.0 1.0 0.00 0.00 0.00 40 1016.2
20200405211548 69 167 0.0 0.0 0.00 0.00 0.00 38 1016.2
20200405210025 69 35 0.0 1.0 0.00 0.00 0.00 40 1016.3
20200405204547 68 146 0.0 0.0 0.00 0.00 0.00 39 1016.4
20200405203034 69 297 0.0 0.0 0.00 0.00 0.00 40 1016.4
20200405201521 69 5 0.0 0.0 0.00 0.00 0.00 39 1016.4
20200405200044 70 286 0.0 12.0 0.00 0.00 0.00 37 1016.5
20200405194516 68 130 0.0 0.0 0.00 0.00 0.00 42 1016.6
20200405193046 67 175 0.0 0.0 0.00 0.00 0.00 41 1016.7
20200405191536 67 210 0.0 0.0 0.00 0.00 0.00 44 1017.0
20200405190011 66 192 0.0 0.0 0.00 0.00 0.00 43 1017.2
20200405184522 66 229 0.0 0.0 0.00 0.00 0.00 44 1017.5
20200405183012 67 234 0.0 1.0 0.00 0.00 0.00 40 1017.5
20200405181535 68 207 0.0 1.0 0.00 0.00 0.00 43 1017.6
20200405180009 68 181 0.0 0.0 0.00 0.00 0.00 41 1017.9
20200405174511 69 191 0.0 2.0 0.00 0.00 0.00 39 1018.1
20200405173012 68 205 0.0 0.0 0.00 0.00 0.00 40 1018.1
20200405171504 67 210 0.0 0.0 0.00 0.00 0.00 41 1018.4
20200405170009 66 303 0.0 1.0 0.00 0.00 0.00 42 1018.6
20200405164518 67 229 0.0 0.0 0.00 0.00 0.00 40 1018.7